createdAt,value
2023-03-28T00:02:06.944Z,98111.41
2023-03-28T00:04:37.591Z,98112.56
2023-03-28T00:07:06.081Z,98129.19
2023-03-28T00:09:34.370Z,98113.34
2023-03-28T00:12:03.974Z,98128.34
2023-03-28T00:14:32.225Z,98122.56
2023-03-28T00:17:02.052Z,98124.06
2023-03-28T00:19:33.098Z,98127.97
2023-03-28T00:22:01.449Z,98123.31
2023-03-28T00:24:29.633Z,98121.75
2023-03-28T00:27:00.652Z,98125.22
2023-03-28T00:29:30.376Z,98131.78
2023-03-28T00:31:58.697Z,98136.41
2023-03-28T00:34:27.111Z,98130.19
2023-03-28T00:36:55.411Z,98149.09
2023-03-28T00:39:23.658Z,98145.97
2023-03-28T00:41:52.397Z,98146.72
2023-03-28T00:44:49.238Z,98140.88
2023-03-28T00:47:30.949Z,98138.56
2023-03-28T00:50:03.225Z,98147.75
2023-03-28T00:52:35.772Z,98160.06
2023-03-28T00:55:07.164Z,98158.88
2023-03-28T00:57:38.342Z,98170.06
2023-03-28T01:00:12.887Z,98163.03
2023-03-28T01:02:46.652Z,98178.03
2023-03-28T01:05:15.253Z,98181.03
2023-03-28T01:07:50.599Z,98181.41
2023-03-28T01:10:20.734Z,98196.03
2023-03-28T01:12:49.924Z,98206.66
2023-03-28T01:15:19.914Z,98224.13
2023-03-28T01:17:48.342Z,98212.47
2023-03-28T01:20:30.275Z,98217.25
2023-03-28T01:23:45.823Z,98234.44
2023-03-28T01:26:51.236Z,98225.72
2023-03-28T01:29:54.998Z,98237.50
2023-03-28T01:32:57.588Z,98218.09
2023-03-28T01:36:04.713Z,98227.03
2023-03-28T01:38:40.022Z,98226.19
2023-03-28T01:41:20.072Z,98231.09
2023-03-28T01:43:53.607Z,98231.06
2023-03-28T01:46:29.212Z,98221.81
2023-03-28T01:49:05.231Z,98234.22
2023-03-28T01:51:47.422Z,98249.50
2023-03-28T01:54:29.137Z,98262.53
2023-03-28T01:57:04.524Z,98268.59
2023-03-28T01:59:39.025Z,98273.91
2023-03-28T02:02:13.434Z,98283.41
2023-03-28T02:04:46.604Z,98280.94
2023-03-28T02:07:16.441Z,98305.34
2023-03-28T02:09:47.446Z,98307.19
2023-03-28T02:12:21.626Z,98294.81
2023-03-28T02:14:52.085Z,98310.88
2023-03-28T02:17:22.263Z,98313.84
2023-03-28T02:19:55.214Z,98327.22
2023-03-28T02:22:32.945Z,98321.63
2023-03-28T02:25:02.845Z,98314.13
2023-03-28T02:27:32.133Z,98313.94
2023-03-28T02:30:00.702Z,98334.00
2023-03-28T02:32:28.978Z,98323.84
2023-03-28T02:34:57.327Z,98331.13
2023-03-28T02:37:41.271Z,98336.00
2023-03-28T02:40:29.082Z,98336.44
2023-03-28T02:43:18.932Z,98339.31
2023-03-28T02:46:17.675Z,98334.63
2023-03-28T02:49:01.753Z,98350.31
2023-03-28T02:51:35.898Z,98360.38
2023-03-28T02:54:19.123Z,98353.03
2023-03-28T02:57:01.879Z,98363.06
2023-03-28T02:59:35.984Z,98375.94
2023-03-28T03:02:07.651Z,98370.03
2023-03-28T03:04:36.086Z,98389.88
2023-03-28T03:07:04.384Z,98396.03
2023-03-28T03:09:33.426Z,98383.53
2023-03-28T03:12:03.083Z,98379.53
2023-03-28T03:14:31.247Z,98388.72
2023-03-28T03:16:59.459Z,98386.28
2023-03-28T03:19:27.716Z,98400.84
2023-03-28T03:21:55.927Z,98385.06
2023-03-28T03:24:25.217Z,98431.41
2023-03-28T03:26:53.697Z,98400.66
2023-03-28T03:29:23.256Z,98401.84
2023-03-28T03:31:51.761Z,98398.38
2023-03-28T03:34:20.096Z,98416.28
2023-03-28T03:36:50.095Z,98436.56
2023-03-28T03:39:18.404Z,98419.78
2023-03-28T03:41:46.517Z,98431.66
2023-03-28T03:44:14.685Z,98434.13
2023-03-28T03:46:44.353Z,98440.63
2023-03-28T03:49:12.693Z,98449.47
2023-03-28T03:51:41.132Z,98435.94
2023-03-28T03:54:09.306Z,98442.34
2023-03-28T03:56:37.464Z,98439.41
2023-03-28T03:59:05.864Z,98441.56
2023-03-28T04:01:36.051Z,98423.09
2023-03-28T04:04:07.451Z,98453.84
2023-03-28T04:06:35.936Z,98470.97
2023-03-28T04:09:04.125Z,98481.38
2023-03-28T04:11:32.184Z,98454.06
2023-03-28T04:14:00.698Z,98454.84
2023-03-28T04:16:29.919Z,98459.44
2023-03-28T04:19:13.891Z,98477.56
2023-03-28T04:21:43.921Z,98486.97
2023-03-28T04:24:15.767Z,98496.25
2023-03-28T04:26:46.058Z,98509.69
2023-03-28T04:29:16.457Z,98518.19
2023-03-28T04:31:50.314Z,98523.22
2023-03-28T04:34:20.520Z,98514.84
2023-03-28T04:36:48.836Z,98535.19
2023-03-28T04:39:17.028Z,98541.78
2023-03-28T04:41:46.641Z,98537.19
2023-03-28T04:44:14.935Z,98533.06
2023-03-28T04:46:43.974Z,98533.97
2023-03-28T04:49:12.357Z,98572.34
2023-03-28T04:51:42.375Z,98545.94
2023-03-28T04:54:10.630Z,98553.84
2023-03-28T04:56:38.778Z,98541.66
2023-03-28T04:59:07.067Z,98577.81
2023-03-28T05:01:35.795Z,98555.88
2023-03-28T05:04:04.240Z,98577.81
2023-03-28T05:06:32.892Z,98580.03
2023-03-28T05:09:02.491Z,98581.63
2023-03-28T05:11:31.694Z,98571.00
2023-03-28T05:13:59.818Z,98576.81
2023-03-28T05:16:28.315Z,98589.34
2023-03-28T05:18:56.804Z,98576.34
2023-03-28T05:21:27.335Z,98591.81
2023-03-28T05:23:55.670Z,98603.44
2023-03-28T05:26:25.847Z,98596.97
2023-03-28T05:28:54.236Z,98603.44
2023-03-28T05:31:22.548Z,98636.22
2023-03-28T05:33:50.750Z,98622.44
2023-03-28T05:36:19.079Z,98625.13
2023-03-28T05:38:47.694Z,98614.41
2023-03-28T05:41:16.133Z,98637.13
2023-03-28T05:43:45.613Z,98654.16
2023-03-28T05:46:14.039Z,98632.53
2023-03-28T05:48:42.805Z,98663.88
2023-03-28T05:51:17.738Z,98662.41
2023-03-28T05:53:46.020Z,98649.75
2023-03-28T05:56:14.853Z,98644.63
2023-03-28T05:58:43.471Z,98652.69
2023-03-28T06:01:18.657Z,98675.97
2023-03-28T06:03:48.479Z,98648.78
2023-03-28T06:06:18.244Z,98654.72
2023-03-28T06:08:47.511Z,98663.53
2023-03-28T06:11:16.349Z,98639.13
2023-03-28T06:13:44.537Z,98657.50
2023-03-28T06:16:15.533Z,98630.84
2023-03-28T06:18:43.756Z,98654.13
2023-03-28T06:21:13.227Z,98651.44
2023-03-28T06:23:41.859Z,98633.84
2023-03-28T06:26:10.139Z,98639.38
2023-03-28T06:28:38.495Z,98639.09
2023-03-28T06:31:06.947Z,98644.81
2023-03-28T06:33:37.671Z,98620.03
2023-03-28T06:36:07.212Z,98636.91
2023-03-28T06:38:35.566Z,98653.34
2023-03-28T06:41:03.982Z,98663.53
2023-03-28T06:43:32.356Z,98669.84
2023-03-28T06:46:00.623Z,98694.47
2023-03-28T06:48:33.633Z,98703.13
2023-03-28T06:51:06.281Z,98712.06
2023-03-28T06:53:36.196Z,98718.94
2023-03-28T06:56:04.414Z,98710.94
2023-03-28T06:58:33.922Z,98690.88
2023-03-28T07:01:02.514Z,98713.88
2023-03-28T07:03:33.146Z,98712.53
2023-03-28T07:06:10.120Z,98712.97
2023-03-28T07:08:38.568Z,98735.38
2023-03-28T07:11:09.308Z,98698.69
2023-03-28T07:13:38.745Z,98738.19
2023-03-28T07:16:09.402Z,98722.59
2023-03-28T07:18:38.767Z,98727.75
2023-03-28T07:21:11.208Z,98738.06
2023-03-28T07:23:40.575Z,98724.75
2023-03-28T07:26:11.129Z,98715.34
2023-03-28T07:28:40.055Z,98720.44
2023-03-28T07:31:09.179Z,98726.25
2023-03-28T07:33:39.571Z,98726.25
2023-03-28T07:36:16.744Z,98732.56
2023-03-28T07:38:48.397Z,98716.81
2023-03-28T07:41:17.464Z,98715.28
2023-03-28T07:43:48.646Z,98724.50
2023-03-28T07:46:18.102Z,98722.69
2023-03-28T07:48:46.723Z,98727.56
2023-03-28T07:51:18.280Z,98735.47
2023-03-28T07:53:46.920Z,98722.88
2023-03-28T07:56:15.006Z,98727.22
2023-03-28T07:58:43.309Z,98750.34
2023-03-28T08:01:13.999Z,98728.38
2023-03-28T08:03:42.950Z,98747.66
2023-03-28T08:06:28.697Z,98742.97
2023-03-28T08:09:01.766Z,98729.06
2023-03-28T08:11:30.104Z,98759.63
2023-03-28T08:13:58.346Z,98756.28
2023-03-28T08:16:26.731Z,98743.38
2023-03-28T08:19:03.949Z,98765.34
2023-03-28T08:21:38.600Z,98757.47
2023-03-28T08:24:14.049Z,98762.00
2023-03-28T08:26:48.648Z,98772.41
2023-03-28T08:29:17.003Z,98776.34
2023-03-28T08:31:45.503Z,98779.03
2023-03-28T08:34:13.866Z,98806.00
2023-03-28T08:36:42.660Z,98785.56
2023-03-28T08:39:12.681Z,98807.47
2023-03-28T08:41:57.563Z,98805.97
2023-03-28T08:44:48.321Z,98809.13
2023-03-28T08:47:21.560Z,98779.66
2023-03-28T08:49:55.720Z,98817.81
2023-03-28T08:52:24.495Z,98807.06
2023-03-28T08:55:00.054Z,98815.00
2023-03-28T08:57:44.686Z,98806.81
2023-03-28T09:00:17.588Z,98804.72
2023-03-28T09:02:46.080Z,98823.63
2023-03-28T09:07:56.215Z,98820.34
2023-03-28T09:10:33.694Z,98825.75
2023-03-28T09:13:11.480Z,98788.84
2023-03-28T09:15:49.351Z,98809.72
2023-03-28T09:18:39.302Z,98817.91
2023-03-28T09:21:18.281Z,98832.97
2023-03-28T09:24:13.177Z,98816.59
2023-03-28T09:26:48.483Z,98828.44
2023-03-28T09:29:20.011Z,98830.97
2023-03-28T09:31:51.222Z,98833.16
2023-03-28T09:34:23.499Z,98831.81
2023-03-28T09:36:55.517Z,98840.09
2023-03-28T09:39:34.085Z,98830.22
2023-03-28T09:42:08.060Z,98848.88
2023-03-28T09:44:52.981Z,98868.75
2023-03-28T09:47:22.877Z,98882.50
2023-03-28T09:50:02.135Z,98861.69
2023-03-28T09:52:34.245Z,98871.84
2023-03-28T09:55:03.126Z,98851.84
2023-03-28T09:58:00.977Z,98887.09
2023-03-28T10:00:29.861Z,98892.94
2023-03-28T10:02:58.611Z,98888.06
2023-03-28T10:05:36.893Z,98890.50
2023-03-28T10:08:21.476Z,98902.00
2023-03-28T10:11:02.837Z,98902.44
2023-03-28T10:13:41.746Z,98910.53
2023-03-28T10:16:13.747Z,98916.47
2023-03-28T10:18:44.213Z,98908.50
2023-03-28T10:21:15.929Z,98910.97
2023-03-28T10:23:51.337Z,98902.44
2023-03-28T10:26:26.699Z,98900.84
2023-03-28T10:29:02.301Z,98895.13
2023-03-28T10:31:34.328Z,98923.22
2023-03-28T10:34:03.212Z,98892.69
2023-03-28T10:36:34.005Z,98919.50
2023-03-28T10:39:22.541Z,98908.84
2023-03-28T10:41:54.896Z,98948.47
2023-03-28T10:44:30.686Z,98927.22
2023-03-28T10:47:02.496Z,98943.94
2023-03-28T10:49:38.958Z,98914.97
2023-03-28T10:52:23.113Z,98956.59
2023-03-28T10:55:03.149Z,98918.97
2023-03-28T10:57:40.302Z,98921.41
2023-03-28T11:00:15.519Z,98907.47
2023-03-28T11:03:18.063Z,98906.78
2023-03-28T11:06:07.931Z,98887.88
2023-03-28T11:08:46.689Z,98914.38
2023-03-28T11:11:31.342Z,98917.75
2023-03-28T11:14:09.162Z,98926.78
2023-03-28T11:16:50.600Z,98939.16
2023-03-28T11:19:30.804Z,98948.31
2023-03-28T11:22:08.060Z,98946.91
2023-03-28T11:24:43.943Z,98924.91
2023-03-28T11:27:20.570Z,98945.72
2023-03-28T11:29:53.157Z,98955.03
2023-03-28T11:32:27.703Z,98959.75
2023-03-28T11:35:06.657Z,98965.22
2023-03-28T11:37:40.188Z,98960.41
2023-03-28T11:40:20.122Z,98958.13
2023-03-28T11:42:53.149Z,98958.56
2023-03-28T11:45:42.001Z,98963.03
2023-03-28T11:48:22.853Z,98965.38
2023-03-28T11:51:00.347Z,98948.59
2023-03-28T11:53:32.102Z,98958.16
2023-03-28T11:56:06.963Z,98968.09
2023-03-28T11:58:38.633Z,98973.91
2023-03-28T12:01:12.131Z,98938.66
2023-03-28T12:03:55.854Z,98947.19
2023-03-28T12:06:30.747Z,98972.09
2023-03-28T12:09:03.772Z,98970.97
2023-03-28T12:11:38.877Z,98994.50
2023-03-28T12:14:17.396Z,98978.03
2023-03-28T12:16:49.392Z,98969.00
2023-03-28T12:19:30.579Z,98973.16
2023-03-28T12:22:04.729Z,98976.16
2023-03-28T12:24:41.874Z,98974.50
2023-03-28T12:27:21.030Z,98978.97
2023-03-28T12:29:54.860Z,98969.56
2023-03-28T12:32:38.460Z,98993.59
2023-03-28T12:35:15.998Z,98986.19
2023-03-28T12:37:55.814Z,98996.34
2023-03-28T12:40:29.699Z,98985.22
2023-03-28T12:42:59.734Z,98985.47
2023-03-28T12:45:31.629Z,98982.53
2023-03-28T12:48:06.881Z,98985.94
2023-03-28T12:50:47.376Z,98992.31
2023-03-28T12:53:17.300Z,98982.13
2023-03-28T12:55:52.346Z,98998.91
2023-03-28T12:58:27.320Z,99011.25
2023-03-28T13:01:20.882Z,98998.03
2023-03-28T13:04:01.835Z,99008.78
2023-03-28T13:06:42.479Z,99001.88
2023-03-28T13:09:24.823Z,99006.31
2023-03-28T13:12:00.301Z,99009.03
2023-03-28T13:14:58.033Z,98989.81
2023-03-28T13:17:28.104Z,99018.03
2023-03-28T13:20:07.290Z,98997.91
2023-03-28T13:22:44.377Z,99006.72
2023-03-28T13:25:34.008Z,99008.00
2023-03-28T13:28:22.729Z,99011.66
2023-03-28T13:31:07.667Z,99038.28
2023-03-28T13:33:38.406Z,99030.59
2023-03-28T13:36:37.731Z,99027.25
2023-03-28T13:39:22.019Z,99033.66
2023-03-28T13:42:02.431Z,99033.72
2023-03-28T13:44:35.043Z,99034.38
2023-03-28T13:47:03.358Z,99038.69
2023-03-28T13:49:44.008Z,99046.91
2023-03-28T13:52:16.830Z,99055.97
2023-03-28T13:54:54.683Z,99052.03
2023-03-28T13:57:26.360Z,99057.75
2023-03-28T13:59:58.604Z,99053.22
2023-03-28T14:02:38.112Z,99051.56
2023-03-28T14:05:19.817Z,99055.72
2023-03-28T14:07:48.200Z,99060.44
2023-03-28T14:10:30.023Z,99068.53
2023-03-28T14:13:01.661Z,99090.75
2023-03-28T14:15:33.685Z,99071.59
2023-03-28T14:18:03.198Z,99068.72
2023-03-28T14:20:33.155Z,99082.59
2023-03-28T14:23:01.896Z,99083.44
2023-03-28T14:25:31.641Z,99081.03
2023-03-28T14:28:09.242Z,99109.06
2023-03-28T14:30:42.403Z,99096.94
2023-03-28T14:33:21.433Z,99094.50
2023-03-28T14:36:01.857Z,99083.88
2023-03-28T14:38:35.295Z,99098.81
2023-03-28T14:41:13.371Z,99093.09
2023-03-28T14:43:41.879Z,99094.31
2023-03-28T14:46:12.306Z,99107.59
2023-03-28T14:48:43.497Z,99108.81
2023-03-28T14:51:14.425Z,99120.50
2023-03-28T14:53:45.974Z,99130.25
2023-03-28T14:56:19.594Z,99122.63
2023-03-28T14:58:50.214Z,99118.47
2023-03-28T15:01:23.078Z,99142.03
2023-03-28T15:03:58.574Z,99144.38
2023-03-28T15:06:29.496Z,99135.91
2023-03-28T15:09:00.534Z,99141.63
2023-03-28T15:11:32.846Z,99133.66
2023-03-28T15:14:03.482Z,99148.09
2023-03-28T15:16:33.462Z,99161.88
2023-03-28T15:19:07.130Z,99153.13
2023-03-28T15:21:36.246Z,99174.63
2023-03-28T15:24:05.894Z,99174.13
2023-03-28T15:26:38.318Z,99177.19
2023-03-28T15:29:08.714Z,99186.66
2023-03-28T15:31:41.491Z,99211.28
2023-03-28T15:34:11.944Z,99190.28
2023-03-28T15:36:56.350Z,99199.97
2023-03-28T15:39:26.595Z,99197.50
2023-03-28T15:42:00.616Z,99190.84
2023-03-28T15:44:31.768Z,99220.44
2023-03-28T15:47:02.951Z,99231.22
2023-03-28T15:49:36.918Z,99218.53
2023-03-28T15:52:06.800Z,99256.19
2023-03-28T15:54:42.278Z,99216.72
2023-03-28T15:57:14.419Z,99214.34
2023-03-28T15:59:47.760Z,99231.56
2023-03-28T16:02:33.686Z,99236.50
2023-03-28T16:05:03.712Z,99242.03
2023-03-28T16:07:37.123Z,99236.72
2023-03-28T16:10:06.178Z,99237.28
2023-03-28T16:12:35.674Z,99241.09
2023-03-28T16:15:05.495Z,99243.34
2023-03-28T16:17:34.140Z,99231.16
2023-03-28T16:20:04.095Z,99246.53
2023-03-28T16:22:32.199Z,99248.97
2023-03-28T16:25:00.333Z,99242.69
2023-03-28T16:27:28.376Z,99276.38
2023-03-28T16:29:58.213Z,99265.44
2023-03-28T16:32:26.794Z,99285.44
2023-03-28T16:34:55.229Z,99280.94
2023-03-28T16:37:23.444Z,99290.25
2023-03-28T16:39:51.609Z,99301.78
2023-03-28T16:42:20.875Z,99312.63
2023-03-28T16:44:49.179Z,99312.16
2023-03-28T16:47:18.735Z,99303.84
2023-03-28T16:49:46.868Z,99320.50
2023-03-28T16:52:15.009Z,99324.31
2023-03-28T16:54:44.322Z,99311.84
2023-03-28T16:57:12.526Z,99317.88
2023-03-28T16:59:40.686Z,99324.50
2023-03-28T17:02:09.165Z,99325.31
2023-03-28T17:04:39.187Z,99328.34
2023-03-28T17:07:08.298Z,99337.19
2023-03-28T17:09:36.407Z,99334.81
2023-03-28T17:12:04.669Z,99345.59
2023-03-28T17:14:32.903Z,99357.59
2023-03-28T17:17:01.593Z,99350.19
2023-03-28T17:19:30.217Z,99360.66
2023-03-28T17:22:00.661Z,99357.94
2023-03-28T17:24:30.032Z,99360.19
2023-03-28T17:26:58.172Z,99360.84
2023-03-28T17:29:26.474Z,99369.69
2023-03-28T17:31:55.346Z,99365.75
2023-03-28T17:34:24.794Z,99371.91
2023-03-28T17:36:53.487Z,99379.69
2023-03-28T17:39:23.161Z,99386.16
2023-03-28T17:41:51.480Z,99380.16
2023-03-28T17:44:20.538Z,99380.78
2023-03-28T17:46:48.875Z,99391.53
2023-03-28T17:49:18.271Z,99399.00
2023-03-28T17:51:46.795Z,99408.94
2023-03-28T17:54:15.109Z,99420.53
2023-03-28T17:56:45.032Z,99411.63
2023-03-28T17:59:13.824Z,99414.69
2023-03-28T18:01:41.972Z,99431.13
2023-03-28T18:04:10.326Z,99421.16
2023-03-28T18:06:38.540Z,99443.81
2023-03-28T18:09:06.754Z,99428.44
2023-03-28T18:11:35.866Z,99431.94
2023-03-28T18:14:06.189Z,99431.31
2023-03-28T18:16:36.335Z,99434.34
2023-03-28T18:19:06.938Z,99431.97
2023-03-28T18:21:35.246Z,99428.19
2023-03-28T18:24:03.562Z,99433.88
2023-03-28T18:26:33.235Z,99439.13
2023-03-28T18:29:01.663Z,99449.09
2023-03-28T18:31:32.416Z,99441.47
2023-03-28T18:34:00.633Z,99460.50
2023-03-28T18:36:28.911Z,99462.75
2023-03-28T18:38:57.130Z,99456.75
2023-03-28T18:41:27.503Z,99473.84
2023-03-28T18:43:55.685Z,99470.53
2023-03-28T18:46:25.575Z,99488.09
2023-03-28T18:48:56.530Z,99488.75
2023-03-28T18:51:25.706Z,99501.09
2023-03-28T18:53:54.026Z,99501.88
2023-03-28T18:56:22.961Z,99504.09
2023-03-28T18:58:51.502Z,99515.50
2023-03-28T19:01:20.707Z,99526.09
2023-03-28T19:03:49.984Z,99525.00
2023-03-28T19:06:19.809Z,99523.72
2023-03-28T19:08:48.858Z,99534.03
2023-03-28T19:11:19.803Z,99539.22
2023-03-28T19:13:48.297Z,99551.59
2023-03-28T19:16:19.469Z,99544.44
2023-03-28T19:18:48.862Z,99559.47
2023-03-28T19:21:18.127Z,99564.38
2023-03-28T19:23:49.877Z,99567.84
2023-03-28T19:26:19.523Z,99577.97
2023-03-28T19:28:49.163Z,99583.47
2023-03-28T19:31:18.500Z,99600.38
2023-03-28T19:33:50.367Z,99602.44
2023-03-28T19:36:26.551Z,99613.03
2023-03-28T19:38:56.892Z,99600.03
2023-03-28T19:41:26.660Z,99605.75
2023-03-28T19:43:55.524Z,99612.69
2023-03-28T19:46:34.663Z,99604.63
2023-03-28T19:49:07.101Z,99611.75
2023-03-28T19:51:35.735Z,99597.81
2023-03-28T19:54:05.783Z,99600.66
2023-03-28T19:56:34.073Z,99607.28
2023-03-28T19:59:02.311Z,99623.75
2023-03-28T20:01:30.667Z,99623.75
2023-03-28T20:03:59.730Z,99629.88
2023-03-28T20:06:28.178Z,99628.59
2023-03-28T20:08:56.558Z,99630.47
2023-03-28T20:11:26.749Z,99641.69
2023-03-28T20:13:56.409Z,99639.13
2023-03-28T20:16:24.891Z,99638.34
2023-03-28T20:18:56.534Z,99645.25
2023-03-28T20:21:25.696Z,99654.69
2023-03-28T20:23:59.093Z,99646.78
2023-03-28T20:26:30.852Z,99662.72
2023-03-28T20:29:00.557Z,99649.41
2023-03-28T20:31:29.773Z,99654.78
2023-03-28T20:33:59.036Z,99658.56
2023-03-28T20:36:27.405Z,99669.44
2023-03-28T20:38:56.591Z,99668.47
2023-03-28T20:41:27.397Z,99673.34
2023-03-28T20:44:03.683Z,99668.75
2023-03-28T20:46:34.678Z,99684.88
2023-03-28T20:49:06.255Z,99681.22
2023-03-28T20:51:39.377Z,99681.63
2023-03-28T20:54:07.807Z,99687.50
2023-03-28T20:56:36.362Z,99682.25
2023-03-28T20:59:06.828Z,99688.91
2023-03-28T21:01:39.636Z,99673.41
2023-03-28T21:04:08.803Z,99681.56
2023-03-28T21:06:38.466Z,99695.44
2023-03-28T21:09:10.006Z,99692.06
2023-03-28T21:11:40.090Z,99700.72
2023-03-28T21:14:12.726Z,99702.50
2023-03-28T21:16:41.461Z,99715.75
2023-03-28T21:19:10.476Z,99719.22
2023-03-28T21:21:38.572Z,99722.22
2023-03-28T21:24:08.213Z,99733.84
2023-03-28T21:26:37.083Z,99739.50
2023-03-28T21:29:05.938Z,99742.88
2023-03-28T21:31:35.544Z,99752.03
2023-03-28T21:34:04.683Z,99746.97
2023-03-28T21:36:35.929Z,99745.19
2023-03-28T21:39:05.597Z,99757.59
2023-03-28T21:41:37.813Z,99755.59
2023-03-28T21:44:06.331Z,99770.69
2023-03-28T21:46:37.462Z,99753.03
2023-03-28T21:49:05.672Z,99757.31
2023-03-28T21:51:34.122Z,99765.84
2023-03-28T21:54:02.289Z,99758.59
2023-03-28T21:56:30.651Z,99756.19
2023-03-28T21:58:58.619Z,99757.00
2023-03-28T22:01:26.834Z,99770.09
2023-03-28T22:03:56.461Z,99775.47
2023-03-28T22:06:24.709Z,99775.47
2023-03-28T22:08:55.759Z,99773.88
2023-03-28T22:11:27.990Z,99786.19
2023-03-28T22:14:01.889Z,99784.50
2023-03-28T22:16:32.493Z,99785.50
2023-03-28T22:19:03.345Z,99799.09
2023-03-28T22:21:33.479Z,99787.28
2023-03-28T22:24:04.494Z,99790.97
2023-03-28T22:26:32.759Z,99800.00
2023-03-28T22:29:01.229Z,99806.84
2023-03-28T22:31:29.695Z,99804.47
2023-03-28T22:33:58.294Z,99812.50
2023-03-28T22:36:28.068Z,99813.78
2023-03-28T22:38:57.224Z,99812.41
2023-03-28T22:41:25.546Z,99823.72
2023-03-28T22:43:53.643Z,99820.53
2023-03-28T22:46:22.351Z,99816.88
2023-03-28T22:48:54.626Z,99820.53
2023-03-28T22:51:25.248Z,99821.75
2023-03-28T22:53:55.319Z,99820.16
2023-03-28T22:56:25.530Z,99814.00
2023-03-28T22:58:54.113Z,99815.88
2023-03-28T23:01:26.175Z,99815.88
2023-03-28T23:03:54.484Z,99819.75
2023-03-28T23:06:22.790Z,99822.50
2023-03-28T23:08:50.874Z,99822.91
2023-03-28T23:11:21.298Z,99828.56
2023-03-28T23:13:49.431Z,99845.22
2023-03-28T23:16:18.027Z,99843.16
2023-03-28T23:18:46.311Z,99840.53
2023-03-28T23:21:14.741Z,99840.53
2023-03-28T23:23:43.197Z,99836.88
2023-03-28T23:26:11.343Z,99838.53
2023-03-28T23:28:40.942Z,99835.38
2023-03-28T23:31:11.355Z,99835.94
2023-03-28T23:33:40.163Z,99837.34
2023-03-28T23:36:09.261Z,99842.72
2023-03-28T23:38:37.605Z,99843.50
2023-03-28T23:41:06.687Z,99844.97
2023-03-28T23:43:35.572Z,99842.56
2023-03-28T23:46:05.413Z,99847.44
2023-03-28T23:48:33.677Z,99847.19
2023-03-28T23:51:02.767Z,99851.75
2023-03-28T23:53:31.332Z,99849.09
2023-03-28T23:55:59.641Z,99856.91
2023-03-28T23:58:27.867Z,99851.56
